Latest Weather Observations for Young

IDN60801

Issued at 11:04 am EDT Monday 2 February 2015 (issued every 30 minutes, with the page automatically refreshed every 10 minutes)

About weather observations | Map of weather stations | Latest weather observations for NSW | Other Formats
Station Details ID: 073138 Name: YOUNG AIRPORT Lat: -34.25 Lon: 148.25 Height: 379.6 m
Data from the previous 72 hours. | See also: Recent months at Young
Date/Time
EDT
Temp
°C
App
Temp
°C
Dew
Point
Rel
Hum
%
Delta-T
°C
Wind Press
QNH
hPa
Press
MSL
hPa
Rain
since 9 am
mm
Dir
 
Spd
km/h
Gust
km/h
Spd
kts
Gust
kts
02/11:00am 22.6 18.0 9.7 44 7.1 ESE 24 35 13 19 1015.7 1013.9 0.0
02/10:30am 21.8 17.9 9.3 45 6.8 ESE 20 32 11 17 1015.8 1014.0 0.0
02/10:00am 20.8 16.4 9.1 47 6.3 ESE 22 35 12 19 1015.5 1013.7 0.0
02/09:30am 19.9 14.8 9.2 50 5.8 ESE 26 37 14 20 1015.4 1013.6 0.0
02/09:00am 19.1 14.4 9.3 53 5.3 ESE 24 39 13 21 1015.3 1013.5 0.0
02/08:30am 17.9 12.8 9.3 57 4.6 ESE 26 39 14 21 1015.0 1013.2 0.0
02/08:00am 17.3 13.4 9.5 60 4.2 ESE 20 33 11 18 1014.7 1012.8 0.0
02/07:30am 16.4 12.8 10.0 66 3.4 ESE 19 30 10 16 1014.0 1012.2 0.0
02/07:00am 15.3 12.5 11.3 77 2.2 SE 17 26 9 14 1013.5 1011.7 0.0
02/06:30am 15.0 12.3 11.6 80 1.9 ESE 17 26 9 14 1013.0 1011.2 0.0
02/06:00am 14.8 12.5 11.6 81 1.8 SE 15 24 8 13 1012.6 1010.8 0.0
02/05:30am 14.8 12.5 11.8 82 1.6 SE 15 24 8 13 1012.2 1010.3 0.0
02/05:00am 15.0 12.4 12.0 82 1.7 SE 17 26 9 14 1011.8 1010.0 0.0
02/04:30am 15.2 12.9 11.6 79 2.0 SE 15 24 8 13 1011.5 1009.7 0.0
02/04:00am 15.6 12.9 11.6 77 2.2 SE 17 24 9 13 1011.4 1009.6 0.0
02/03:30am 15.5 13.4 11.3 76 2.3 SE 13 19 7 10 1011.2 1009.4 0.0
02/03:00am 15.4 12.9 11.0 75 2.4 SE 15 19 8 10 1011.4 1009.6 0.0
02/02:30am 16.1 13.1 10.8 71 2.9 SE 17 26 9 14 1011.4 1009.6 0.0
02/02:00am 16.4 14.2 10.9 70 3.0 ESE 13 28 7 15 1011.6 1009.8 0.0
02/01:30am 16.3 14.2 11.0 71 2.9 SE 13 22 7 12 1011.7 1009.9 0.0
02/01:00am 16.5 13.9 10.8 69 3.1 SE 15 26 8 14 1011.8 1010.0 0.0
02/12:30am 17.1 14.1 10.7 66 3.5 SE 17 24 9 13 1011.8 1010.0 0.0
02/12:00am 17.5 14.9 10.6 64 3.8 SE 15 24 8 13 1012.0 1010.1 0.0
 
Date/Time
EDT
Temp
°C
App
Temp
°C
Dew
Point
Rel
Hum
%
Delta-T
°C
Wind Press
QNH
hPa
Press
MSL
hPa
Rain
since 9 am
mm
Dir
 
Spd
km/h
Gust
km/h
Spd
kts
Gust
kts
01/11:30pm 17.8 14.9 11.1 65 3.7 SE 17 26 9 14 1012.0 1010.1 0.0
01/11:00pm 18.2 15.3 11.0 63 4.0 SE 17 26 9 14 1011.6 1009.8 0.0
01/10:30pm 19.0 15.9 10.3 57 4.8 SE 17 30 9 16 1011.4 1009.6 0.0
01/10:00pm 19.5 15.8 11.5 60 4.5 SE 22 33 12 18 1011.1 1009.3 0.0
01/09:30pm 20.1 17.0 12.3 61 4.4 SE 20 28 11 15 1010.6 1008.8 0.0
01/09:00pm 17.5 15.0 6.4 48 5.6 SW 9 19 5 10 1009.6 1007.7 0.0
01/08:30pm 20.6 19.4 4.6 35 7.9 CALM 0 0 0 0 1008.9 1007.1 0.0
01/08:00pm 24.6 22.2 4.4 27 10.3 W 6 7 3 4 1008.5 1006.7 0.0
01/07:30pm 26.3 23.7 4.1 24 11.3 W 7 13 4 7 1008.1 1006.3 0.0
01/07:00pm 26.8 23.5 4.6 24 11.5 WNW 11 19 6 10 1007.9 1006.1 0.0
01/06:30pm 27.4 24.9 4.5 23 11.8 NW 7 17 4 9 1007.6 1005.7 0.0
01/06:00pm 28.3 25.4 4.6 22 12.4 W 9 20 5 11 1007.5 1005.6 0.0
01/05:30pm 27.6 24.0 5.2 24 11.7 W 13 24 7 13 1007.5 1005.6 0.0
01/05:00pm 28.4 25.8 5.9 24 12.0 SSW 9 17 5 9 1007.5 1005.6 0.0
01/04:30pm 27.3 24.7 6.1 26 11.3 SW 9 13 5 7 1007.7 1005.8 0.0
01/04:00pm 26.0 22.7 6.6 29 10.3 SSW 13 22 7 12 1007.9 1006.1 0.0
01/03:30pm 27.4 23.8 5.1 24 11.6 WSW 13 20 7 11 1007.9 1006.1 0.0
01/03:00pm 27.9 23.9 4.9 23 12.0 WNW 15 26 8 14 1008.3 1006.5 0.0
01/02:30pm 26.4 22.9 5.4 26 11.0 W 13 28 7 15 1008.4 1006.6 0.0
01/02:00pm 26.1 22.7 4.0 24 11.3 WSW 11 20 6 11 1008.7 1006.9 0.0
01/01:30pm 26.1 22.2 3.4 23 11.4 NW 13 22 7 12 1008.9 1007.1 0.0
01/01:00pm 26.4 21.5 4.2 24 11.4 WSW 19 28 10 15 1009.4 1007.5 0.0
01/12:30pm 26.0 22.6 6.1 28 10.5 WNW 13 22 7 12 1009.6 1007.7 0.0
01/12:00pm 25.3 21.9 6.0 29 10.1 WNW 13 20 7 11 1009.9 1008.0 0.0
01/11:30am 23.7 20.3 6.0 32 9.2 NW 13 20 7 11 1009.9 1008.0 0.0
01/11:00am 24.8 21.7 7.4 33 9.3 S 13 28 7 15 1009.8 1007.9 0.0
01/10:30am 22.8 21.5 9.2 42 7.4 SSW 6 9 3 5 1009.9 1007.9 0.0
01/10:00am 22.1 21.2 10.6 48 6.4 SE 6 13 3 7 1010.0 1008.0 0.0
01/09:30am 20.8 20.1 11.4 55 5.3 SSE 6 9 3 5 1009.9 1007.9 0.0
01/09:00am 19.5 18.5 12.3 63 4.1 E 9 11 5 6 1009.9 1007.9 0.0
01/08:30am 17.5 18.1 12.0 70 3.1 CALM 0 0 0 0 1009.8 1007.8 0.0
01/08:00am 16.4 15.5 12.6 78 2.1 SSE 9 11 5 6 1009.4 1007.4 0.0
01/07:30am 12.9 11.7 10.4 85 1.3 S 7 9 4 5 1009.3 1007.3 0.0
01/07:00am 10.0 8.3 8.4 90 0.8 S 7 9 4 5 1009.0 1007.1 0.0
01/06:30am 9.2 7.4 8.0 92 0.6 S 7 9 4 5 1009.0 1007.1 0.0
01/06:00am 8.7 6.7 7.3 91 0.7 S 7 9 4 5 1008.7 1006.8 0.0
01/05:30am 9.3 7.4 7.7 90 0.8 SSW 7 9 4 5 1008.5 1006.6 0.0
01/05:00am 9.1 7.4 7.4 89 0.8 SSW 6 7 3 4 1008.4 1006.5 0.0
01/04:30am 9.0 7.1 6.6 85 1.1 SSW 6 7 3 4 1008.4 1006.5 0.0
01/04:00am 9.9 8.0 7.7 86 1.1 S 7 7 4 4 1008.2 1006.3 0.0
01/03:30am 9.3 7.4 6.7 84 1.2 SSW 6 6 3 3 1008.3 1006.4 0.0
01/03:00am 10.0 9.3 7.1 82 1.4 CALM 0 4 0 2 1008.4 1006.5 0.0
01/02:30am 10.1 8.3 7.0 81 1.5 S 6 7 3 4 1008.4 1006.5 0.0
01/02:00am 10.0 9.3 7.1 82 1.4 CALM 0 0 0 0 1008.6 1006.7 0.0
01/01:30am 10.6 8.6 6.9 78 1.8 SSW 7 7 4 4 1008.4 1006.5 0.0
01/01:00am 11.6 9.7 7.7 77 1.9 SSW 7 9 4 5 1008.7 1006.8 0.0
01/12:30am 11.1 9.1 7.2 77 1.9 SSW 7 9 4 5 1008.9 1007.0 0.0
01/12:00am 12.3 10.0 7.4 72 2.4 S 9 11 5 6 1009.0 1007.1 0.0
 
Date/Time
EDT
Temp
°C
App
Temp
°C
Dew
Point
Rel
Hum
%
Delta-T
°C
Wind Press
QNH
hPa
Press
MSL
hPa
Rain
since 9 am
mm
Dir
 
Spd
km/h
Gust
km/h
Spd
kts
Gust
kts
31/11:30pm 12.8 12.2 7.5 70 2.6 CALM 0 0 0 0 1009.0 1007.1 0.0
31/11:00pm 12.9 12.1 6.7 66 3.0 CALM 0 0 0 0 1009.0 1007.1 0.0
31/10:30pm 14.2 13.6 7.3 63 3.5 CALM 0 0 0 0 1009.0 1007.1 0.0
31/10:00pm 15.4 13.9 6.7 56 4.3 S 4 7 2 4 1008.9 1007.0 0.0
31/09:30pm 16.7 15.2 6.8 52 5.0 WSW 4 7 2 4 1008.7 1006.8 0.0
31/09:00pm 18.9 16.8 6.7 45 6.2 SSW 7 9 4 5 1008.4 1006.5 0.0
31/08:30pm 21.2 18.1 5.5 36 7.9 SW 11 13 6 7 1008.1 1006.2 0.0
31/08:00pm 23.2 19.7 5.6 32 9.1 SW 13 17 7 9 1007.8 1005.9 0.0
31/07:30pm 24.5 20.6 5.3 29 9.9 SW 15 20 8 11 1007.5 1005.5 0.0
31/07:00pm 25.1 20.5 5.8 29 10.1 SW 19 24 10 13 1007.2 1005.2 0.0
31/06:30pm 25.8 21.7 6.4 29 10.3 SW 17 26 9 14 1006.9 1004.9 0.0
31/06:00pm 25.0 20.5 6.2 30 9.9 SSW 19 32 10 17 1006.8 1004.8 0.0
31/05:30pm 26.8 22.3 6.8 28 10.7 WSW 20 33 11 18 1006.9 1004.9 0.0
31/05:00pm 27.2 23.2 6.6 27 11.1 WSW 17 28 9 15 1007.0 1005.0 0.0
31/04:30pm 26.4 22.6 5.9 27 10.8 WSW 15 28 8 15 1007.0 1005.0 0.0
31/04:00pm 25.8 21.5 5.4 27 10.6 WSW 17 35 9 19 1007.1 1005.1 0.0
31/03:30pm 26.1 22.0 6.2 28 10.5 SW 17 26 9 14 1007.1 1005.1 0.0
31/03:00pm 25.0 20.1 5.2 28 10.2 SW 20 30 11 16 1007.4 1005.4 0.0
31/02:30pm 25.2 20.8 6.4 30 9.9 WSW 19 37 10 20 1007.5 1005.5 0.0
31/02:00pm 24.1 19.9 5.9 31 9.5 SW 17 30 9 16 1007.6 1005.6 0.0
31/01:30pm 24.3 20.1 5.6 30 9.7 WSW 17 28 9 15 1007.7 1005.7 0.0
31/01:00pm 23.6 20.0 5.0 30 9.5 SW 13 24 7 13 1007.9 1006.0 0.0
31/12:30pm 23.4 20.1 6.2 33 8.9 SSW 13 26 7 14 1008.1 1006.2 0.0
31/12:00pm 22.4 18.3 6.2 35 8.4 SW 17 26 9 14 1008.5 1006.6 0.0
31/11:30am 21.9 18.2 6.2 36 8.1 SW 15 24 8 13 1008.8 1006.9 0.0
31/11:00am 21.3 18.0 6.4 38 7.7 SW 13 20 7 11 1009.2 1007.2 0.0
31/10:30am 21.6 17.9 7.8 41 7.3 WSW 17 30 9 16 1009.2 1007.2 0.0
31/10:00am 20.1 16.7 7.5 44 6.6 W 15 22 8 12 1009.2 1007.2 0.0
31/09:30am 19.9 18.0 8.9 49 5.9 NNW 9 15 5 8 1009.3 1007.3 0.0
31/09:00am 18.1 17.7 8.4 53 5.1 CALM 0 6 0 3 1009.4 1007.4 0.0
31/08:30am 15.5 14.9 7.5 59 4.1 CALM 0 0 0 0 1009.3 1007.3 0.0
31/08:00am 13.7 13.3 8.1 69 2.8 CALM 0 0 0 0 1009.2 1007.2 0.0
31/07:30am 10.8 10.3 7.7 81 1.5 CALM 0 0 0 0 1008.9 1007.0 0.0
31/07:00am 8.7 7.9 6.7 87 1.0 CALM 0 4 0 2 1008.6 1006.7 0.0
31/06:30am 7.9 6.2 5.9 87 0.9 SSW 4 6 2 3 1008.3 1006.4 0.0
31/06:00am 8.0 5.4 6.1 88 0.9 S 9 9 5 5 1008.1 1006.2 0.0
31/05:30am 8.2 6.1 6.0 86 1.0 SSW 6 7 3 4 1008.0 1006.1 0.0
31/05:00am 8.8 6.6 6.4 85 1.1 S 7 9 4 5 1008.0 1006.1 0.0
31/04:30am 9.1 6.9 6.4 83 1.3 SSW 7 11 4 6 1007.8 1005.9 0.0
31/04:00am 9.6 7.7 6.9 83 1.3 SW 6 7 3 4 1007.8 1005.9 0.0
31/03:30am 10.2 8.8 7.3 82 1.4 S 4 7 2 4 1007.8 1005.9 0.0
31/03:00am 10.6 7.8 6.9 78 1.8 SW 11 11 6 6 1008.0 1006.1 0.0
31/02:30am 11.3 9.5 7.2 76 2.0 SSW 6 7 3 4 1008.0 1006.1 0.0
31/02:00am 11.4 10.8 7.5 77 1.9 CALM 0 0 0 0 1008.2 1006.3 0.0
31/01:30am 11.5 9.1 7.0 74 2.2 SSW 9 11 5 6 1008.4 1006.5 0.0
31/01:00am 11.0 9.0 7.3 78 1.8 S 7 9 4 5 1008.8 1006.9 0.0
31/12:30am 11.4 9.6 7.3 76 2.0 SW 6 7 3 4 1008.7 1006.8 0.0
31/12:00am 11.4 9.5 6.7 73 2.3 SSE 6 9 3 5 1008.7 1006.8 0.0
 
Date/Time
EDT
Temp
°C
App
Temp
°C
Dew
Point
Rel
Hum
%
Delta-T
°C
Wind Press
QNH
hPa
Press
MSL
hPa
Rain
since 9 am
mm
Dir
 
Spd
km/h
Gust
km/h
Spd
kts
Gust
kts
30/11:30pm 11.8 10.2 6.3 69 2.6 S 4 6 2 3 1008.8 1006.9 0.0
30/11:00pm 13.0 11.8 6.6 65 3.1 SSW 2 6 1 3 1008.8 1006.9 0.0
30/10:30pm 13.3 12.4 6.2 62 3.5 CALM 0 0 0 0 1008.7 1006.8 0.0
30/10:00pm 13.9 13.0 6.0 59 3.8 CALM 0 0 0 0 1008.6 1006.7 0.0
30/09:30pm 15.2 13.1 5.7 53 4.6 SSW 6 7 3 4 1008.5 1006.6 0.0
30/09:00pm 16.0 13.8 5.3 49 5.2 W 6 6 3 3 1008.1 1006.2 0.0
30/08:30pm 18.7 16.2 4.8 40 6.8 WSW 7 9 4 5 1007.9 1006.0 0.0
30/08:00pm 20.8 17.5 4.4 34 8.1 SW 11 17 6 9 1007.7 1005.7 0.0
30/07:30pm 22.1 18.4 4.2 31 8.9 SW 13 20 7 11 1007.5 1005.5 0.0
30/07:00pm 23.1 19.0 4.1 29 9.5 SSW 15 22 8 12 1007.2 1005.2 0.0
30/06:30pm 23.4 18.7 3.4 27 9.9 SW 17 28 9 15 1007.2 1005.2 0.0
30/06:00pm 24.2 19.3 4.0 27 10.2 SSW 19 28 10 15 1007.3 1005.3 0.0
30/05:30pm 23.9 18.8 3.2 26 10.2 SW 19 28 10 15 1007.3 1005.3 0.0
30/05:00pm 24.2 18.4 2.4 24 10.7 SW 22 32 12 17 1007.4 1005.4 0.0
30/04:30pm 23.5 16.8 1.2 23 10.6 SSW 26 39 14 21 1007.5 1005.5 0.0
30/04:00pm 24.4 18.1 -0.7 19 11.6 SW 22 35 12 19 1007.7 1005.7 0.0
30/03:30pm 24.4 18.7 0.7 21 11.2 WSW 20 33 11 18 1008.0 1006.1 0.0
30/03:00pm 24.3 19.0 1.9 23 10.9 SW 19 30 10 16 1008.3 1006.4 0.0
30/02:30pm 23.8 19.3 2.0 24 10.5 WSW 15 30 8 16 1008.8 1006.9 0.0
30/02:00pm 23.3 18.3 1.6 24 10.4 SW 17 33 9 18 1009.2 1007.2 0.0
30/01:30pm 23.4 19.5 3.4 27 9.9 WSW 13 22 7 12 1009.5 1007.5 0.0
30/01:00pm 22.3 18.9 3.9 30 9.1 WSW 11 26 6 14 1009.8 1007.8 0.0
30/12:30pm 21.7 16.6 3.9 31 8.8 WSW 20 26 11 14 1010.3 1008.4 0.0
30/12:00pm 20.5 16.1 4.5 35 7.9 S 17 26 9 14 1010.5 1008.6 0.0
30/11:30am 19.9 16.3 5.2 38 7.3 SW 13 22 7 12 1010.9 1009.0 0.0

Other Formats:

Comma delimited format used in spreadsheet applications
http://www.bom.gov.au/fwo/IDN60801/IDN60801.94712.axf

JavaScript Object Notation format (JSON) in row-major order
http://www.bom.gov.au/fwo/IDN60801/IDN60801.94712.json